sensor_id;sensor_type;location;lat;lon;timestamp;temperature;humidity
3488;DHT22;38546;48.170;11.724;2022-07-10T00:02:41;18.00;99.90
3488;DHT22;38546;48.170;11.724;2022-07-10T00:05:31;18.00;99.90
3488;DHT22;38546;48.170;11.724;2022-07-10T00:08:23;17.90;99.90
3488;DHT22;38546;48.170;11.724;2022-07-10T00:11:12;18.00;99.90
3488;DHT22;38546;48.170;11.724;2022-07-10T00:14:02;18.10;99.90
3488;DHT22;38546;48.170;11.724;2022-07-10T00:16:51;18.20;99.90
3488;DHT22;38546;48.170;11.724;2022-07-10T00:19:40;18.20;99.90
3488;DHT22;38546;48.170;11.724;2022-07-10T00:22:29;18.30;99.90
3488;DHT22;38546;48.170;11.724;2022-07-10T00:25:18;18.20;99.90
3488;DHT22;38546;48.170;11.724;2022-07-10T00:28:08;18.10;99.90
3488;DHT22;38546;48.170;11.724;2022-07-10T00:30:57;18.00;99.90
3488;DHT22;38546;48.170;11.724;2022-07-10T00:33:46;17.90;99.90
3488;DHT22;38546;48.170;11.724;2022-07-10T00:36:37;17.90;99.90
3488;DHT22;38546;48.170;11.724;2022-07-10T00:39:26;17.90;99.90
3488;DHT22;38546;48.170;11.724;2022-07-10T00:42:16;17.90;99.90
3488;DHT22;38546;48.170;11.724;2022-07-10T00:45:06;17.90;99.90
3488;DHT22;38546;48.170;11.724;2022-07-10T00:47:56;17.90;99.90
3488;DHT22;38546;48.170;11.724;2022-07-10T00:50:46;17.90;99.90
3488;DHT22;38546;48.170;11.724;2022-07-10T00:53:36;17.80;99.90
3488;DHT22;38546;48.170;11.724;2022-07-10T00:56:26;17.70;99.90
3488;DHT22;38546;48.170;11.724;2022-07-10T00:59:18;17.70;99.90
3488;DHT22;38546;48.170;11.724;2022-07-10T01:02:07;17.60;99.90
3488;DHT22;38546;48.170;11.724;2022-07-10T01:04:57;17.50;99.90
3488;DHT22;38546;48.170;11.724;2022-07-10T01:07:47;17.30;99.90
3488;DHT22;38546;48.170;11.724;2022-07-10T01:10:37;17.10;99.90
3488;DHT22;38546;48.170;11.724;2022-07-10T01:13:27;16.90;99.90
3488;DHT22;38546;48.170;11.724;2022-07-10T01:16:17;16.70;99.90
3488;DHT22;38546;48.170;11.724;2022-07-10T01:19:06;16.50;99.90
3488;DHT22;38546;48.170;11.724;2022-07-10T01:21:55;16.20;99.90
3488;DHT22;38546;48.170;11.724;2022-07-10T01:24:45;16.10;99.90
3488;DHT22;38546;48.170;11.724;2022-07-10T01:27:34;15.90;99.90
3488;DHT22;38546;48.170;11.724;2022-07-10T01:30:24;15.90;99.90
3488;DHT22;38546;48.170;11.724;2022-07-10T01:33:16;15.80;99.90
3488;DHT22;38546;48.170;11.724;2022-07-10T01:36:07;15.70;99.90
3488;DHT22;38546;48.170;11.724;2022-07-10T01:38:57;15.70;99.90
3488;DHT22;38546;48.170;11.724;2022-07-10T01:41:47;15.70;99.90
3488;DHT22;38546;48.170;11.724;2022-07-10T01:44:37;15.60;99.90
3488;DHT22;38546;48.170;11.724;2022-07-10T01:47:26;15.60;99.90
3488;DHT22;38546;48.170;11.724;2022-07-10T01:50:17;15.50;99.90
3488;DHT22;38546;48.170;11.724;2022-07-10T01:53:06;15.50;99.90
3488;DHT22;38546;48.170;11.724;2022-07-10T01:55:55;15.50;99.90
3488;DHT22;38546;48.170;11.724;2022-07-10T01:58:45;15.50;99.90
3488;DHT22;38546;48.170;11.724;2022-07-10T02:01:34;15.50;99.90
3488;DHT22;38546;48.170;11.724;2022-07-10T02:04:24;15.50;99.90
3488;DHT22;38546;48.170;11.724;2022-07-10T02:07:32;15.60;99.90
3488;DHT22;38546;48.170;11.724;2022-07-10T02:10:21;15.60;99.90
3488;DHT22;38546;48.170;11.724;2022-07-10T02:13:11;15.60;99.90
3488;DHT22;38546;48.170;11.724;2022-07-10T02:16:04;15.60;99.90
3488;DHT22;38546;48.170;11.724;2022-07-10T02:18:53;15.70;99.90
3488;DHT22;38546;48.170;11.724;2022-07-10T02:21:43;15.60;99.90
3488;DHT22;38546;48.170;11.724;2022-07-10T02:24:32;15.70;99.90
3488;DHT22;38546;48.170;11.724;2022-07-10T02:27:21;15.80;99.90
3488;DHT22;38546;48.170;11.724;2022-07-10T02:30:11;15.90;99.90
3488;DHT22;38546;48.170;11.724;2022-07-10T02:33:01;16.00;99.90
3488;DHT22;38546;48.170;11.724;2022-07-10T02:35:50;15.90;99.90
3488;DHT22;38546;48.170;11.724;2022-07-10T02:38:39;15.90;99.90
3488;DHT22;38546;48.170;11.724;2022-07-10T02:41:28;15.90;99.90
3488;DHT22;38546;48.170;11.724;2022-07-10T02:44:17;15.90;99.90
3488;DHT22;38546;48.170;11.724;2022-07-10T02:47:06;15.80;99.90
3488;DHT22;38546;48.170;11.724;2022-07-10T02:49:55;15.70;99.90
3488;DHT22;38546;48.170;11.724;2022-07-10T02:52:44;15.80;99.90
3488;DHT22;38546;48.170;11.724;2022-07-10T02:55:33;15.60;99.90
3488;DHT22;38546;48.170;11.724;2022-07-10T02:58:23;15.60;99.90
3488;DHT22;38546;48.170;11.724;2022-07-10T03:01:12;15.60;99.90
3488;DHT22;38546;48.170;11.724;2022-07-10T03:04:02;15.50;99.90
3488;DHT22;38546;48.170;11.724;2022-07-10T03:06:52;15.60;99.90
3488;DHT22;38546;48.170;11.724;2022-07-10T03:09:42;15.50;99.90
3488;DHT22;38546;48.170;11.724;2022-07-10T03:12:31;15.60;99.90
3488;DHT22;38546;48.170;11.724;2022-07-10T03:15:21;15.60;99.90
3488;DHT22;38546;48.170;11.724;2022-07-10T03:18:10;15.60;99.90
3488;DHT22;38546;48.170;11.724;2022-07-10T03:20:59;15.60;99.90
3488;DHT22;38546;48.170;11.724;2022-07-10T03:23:48;15.60;99.90
3488;DHT22;38546;48.170;11.724;2022-07-10T03:26:38;15.60;99.90
3488;DHT22;38546;48.170;11.724;2022-07-10T03:29:27;15.60;99.90
3488;DHT22;38546;48.170;11.724;2022-07-10T03:32:16;15.70;99.90
3488;DHT22;38546;48.170;11.724;2022-07-10T03:35:06;15.60;99.90
3488;DHT22;38546;48.170;11.724;2022-07-10T03:37:56;15.50;99.90
3488;DHT22;38546;48.170;11.724;2022-07-10T03:40:45;15.50;99.90
3488;DHT22;38546;48.170;11.724;2022-07-10T03:43:37;15.40;99.90
3488;DHT22;38546;48.170;11.724;2022-07-10T03:46:26;15.50;99.90
3488;DHT22;38546;48.170;11.724;2022-07-10T03:49:15;15.40;99.90
3488;DHT22;38546;48.170;11.724;2022-07-10T03:52:05;15.40;99.90
3488;DHT22;38546;48.170;11.724;2022-07-10T03:54:55;15.40;99.90
3488;DHT22;38546;48.170;11.724;2022-07-10T03:57:44;15.60;99.90
3488;DHT22;38546;48.170;11.724;2022-07-10T04:00:51;15.60;99.90
3488;DHT22;38546;48.170;11.724;2022-07-10T04:03:41;15.50;99.90
3488;DHT22;38546;48.170;11.724;2022-07-10T04:06:31;15.50;99.90
3488;DHT22;38546;48.170;11.724;2022-07-10T04:09:20;15.50;99.90
3488;DHT22;38546;48.170;11.724;2022-07-10T04:12:10;15.50;99.90
3488;DHT22;38546;48.170;11.724;2022-07-10T04:15:00;15.60;99.90
3488;DHT22;38546;48.170;11.724;2022-07-10T04:17:50;15.60;99.90
3488;DHT22;38546;48.170;11.724;2022-07-10T04:20:39;15.70;99.90
3488;DHT22;38546;48.170;11.724;2022-07-10T04:23:29;15.70;99.90
3488;DHT22;38546;48.170;11.724;2022-07-10T04:26:18;15.70;99.90
3488;DHT22;38546;48.170;11.724;2022-07-10T04:29:08;15.80;99.90
3488;DHT22;38546;48.170;11.724;2022-07-10T04:31:57;15.90;99.90
3488;DHT22;38546;48.170;11.724;2022-07-10T04:34:46;16.00;99.90
3488;DHT22;38546;48.170;11.724;2022-07-10T04:37:36;16.10;99.90
3488;DHT22;38546;48.170;11.724;2022-07-10T04:40:26;16.20;99.90
3488;DHT22;38546;48.170;11.724;2022-07-10T04:43:16;16.00;99.90
3488;DHT22;38546;48.170;11.724;2022-07-10T04:46:06;16.10;99.90
3488;DHT22;38546;48.170;11.724;2022-07-10T04:48:56;16.20;99.90
3488;DHT22;38546;48.170;11.724;2022-07-10T04:51:45;16.20;99.90
3488;DHT22;38546;48.170;11.724;2022-07-10T04:54:35;16.20;99.90
3488;DHT22;38546;48.170;11.724;2022-07-10T04:57:24;16.10;99.90
3488;DHT22;38546;48.170;11.724;2022-07-10T05:00:14;16.30;99.90
3488;DHT22;38546;48.170;11.724;2022-07-10T05:03:03;16.10;99.90
3488;DHT22;38546;48.170;11.724;2022-07-10T05:05:53;16.10;99.90
3488;DHT22;38546;48.170;11.724;2022-07-10T05:08:42;16.20;99.90
3488;DHT22;38546;48.170;11.724;2022-07-10T05:11:31;16.20;99.90
3488;DHT22;38546;48.170;11.724;2022-07-10T05:14:21;16.30;99.90
3488;DHT22;38546;48.170;11.724;2022-07-10T05:17:11;16.20;99.90
3488;DHT22;38546;48.170;11.724;2022-07-10T05:20:00;16.30;99.90
3488;DHT22;38546;48.170;11.724;2022-07-10T05:22:50;16.30;99.90
3488;DHT22;38546;48.170;11.724;2022-07-10T05:25:39;16.30;99.90
3488;DHT22;38546;48.170;11.724;2022-07-10T05:28:29;16.30;99.90
3488;DHT22;38546;48.170;11.724;2022-07-10T05:31:18;16.20;99.90
3488;DHT22;38546;48.170;11.724;2022-07-10T05:34:07;16.30;99.90
3488;DHT22;38546;48.170;11.724;2022-07-10T05:36:56;16.20;99.90
3488;DHT22;38546;48.170;11.724;2022-07-10T05:39:46;16.30;99.90
3488;DHT22;38546;48.170;11.724;2022-07-10T05:42:35;16.30;99.90
3488;DHT22;38546;48.170;11.724;2022-07-10T05:45:25;16.30;99.90
3488;DHT22;38546;48.170;11.724;2022-07-10T05:48:15;16.30;99.90
3488;DHT22;38546;48.170;11.724;2022-07-10T05:51:04;16.10;99.90
3488;DHT22;38546;48.170;11.724;2022-07-10T05:53:53;16.10;99.90
3488;DHT22;38546;48.170;11.724;2022-07-10T05:56:42;16.00;99.90
3488;DHT22;38546;48.170;11.724;2022-07-10T05:59:35;16.20;99.90
3488;DHT22;38546;48.170;11.724;2022-07-10T06:02:24;16.30;99.90
3488;DHT22;38546;48.170;11.724;2022-07-10T06:05:14;16.40;99.90
3488;DHT22;38546;48.170;11.724;2022-07-10T06:08:04;16.60;99.90
3488;DHT22;38546;48.170;11.724;2022-07-10T06:10:53;16.50;99.90
3488;DHT22;38546;48.170;11.724;2022-07-10T06:13:42;16.50;99.90
3488;DHT22;38546;48.170;11.724;2022-07-10T06:16:31;16.40;99.90
3488;DHT22;38546;48.170;11.724;2022-07-10T06:19:20;16.40;99.90
3488;DHT22;38546;48.170;11.724;2022-07-10T06:22:09;16.50;99.90
3488;DHT22;38546;48.170;11.724;2022-07-10T06:25:20;16.60;99.90
3488;DHT22;38546;48.170;11.724;2022-07-10T06:28:09;16.60;99.90
3488;DHT22;38546;48.170;11.724;2022-07-10T06:30:58;16.70;99.90
3488;DHT22;38546;48.170;11.724;2022-07-10T06:33:48;16.70;99.90
3488;DHT22;38546;48.170;11.724;2022-07-10T06:36:37;16.60;99.90
3488;DHT22;38546;48.170;11.724;2022-07-10T06:39:26;16.70;99.90
3488;DHT22;38546;48.170;11.724;2022-07-10T06:42:17;17.00;99.90
3488;DHT22;38546;48.170;11.724;2022-07-10T06:45:07;17.30;99.90
3488;DHT22;38546;48.170;11.724;2022-07-10T06:47:57;17.40;99.90
3488;DHT22;38546;48.170;11.724;2022-07-10T06:50:47;17.50;99.90
3488;DHT22;38546;48.170;11.724;2022-07-10T06:53:35;17.40;99.90
3488;DHT22;38546;48.170;11.724;2022-07-10T06:56:25;17.50;99.90
3488;DHT22;38546;48.170;11.724;2022-07-10T06:59:14;17.50;99.90
3488;DHT22;38546;48.170;11.724;2022-07-10T07:02:04;17.40;99.90
3488;DHT22;38546;48.170;11.724;2022-07-10T07:04:53;17.10;99.90
3488;DHT22;38546;48.170;11.724;2022-07-10T07:07:42;16.90;99.90
3488;DHT22;38546;48.170;11.724;2022-07-10T07:10:31;17.10;99.90
3488;DHT22;38546;48.170;11.724;2022-07-10T07:13:20;17.00;99.90
3488;DHT22;38546;48.170;11.724;2022-07-10T07:16:09;17.10;99.90
3488;DHT22;38546;48.170;11.724;2022-07-10T07:18:59;17.10;99.90
3488;DHT22;38546;48.170;11.724;2022-07-10T07:21:48;17.00;99.90
3488;DHT22;38546;48.170;11.724;2022-07-10T07:24:57;16.90;99.90
3488;DHT22;38546;48.170;11.724;2022-07-10T07:27:45;17.10;99.90
3488;DHT22;38546;48.170;11.724;2022-07-10T07:30:35;17.30;99.90
3488;DHT22;38546;48.170;11.724;2022-07-10T07:33:24;17.20;99.90
3488;DHT22;38546;48.170;11.724;2022-07-10T07:36:13;17.40;99.90
3488;DHT22;38546;48.170;11.724;2022-07-10T07:39:03;17.40;99.90
3488;DHT22;38546;48.170;11.724;2022-07-10T07:41:53;17.50;99.90
3488;DHT22;38546;48.170;11.724;2022-07-10T07:44:41;17.80;99.90
3488;DHT22;38546;48.170;11.724;2022-07-10T07:47:31;18.00;99.90
3488;DHT22;38546;48.170;11.724;2022-07-10T07:50:33;18.20;99.90
3488;DHT22;38546;48.170;11.724;2022-07-10T07:53:24;18.10;99.90
3488;DHT22;38546;48.170;11.724;2022-07-10T07:56:14;17.90;99.90
3488;DHT22;38546;48.170;11.724;2022-07-10T07:59:03;18.20;99.90
3488;DHT22;38546;48.170;11.724;2022-07-10T08:01:52;18.40;99.90
3488;DHT22;38546;48.170;11.724;2022-07-10T08:04:41;18.60;99.90
3488;DHT22;38546;48.170;11.724;2022-07-10T08:07:42;18.50;99.90
3488;DHT22;38546;48.170;11.724;2022-07-10T08:10:33;18.20;99.90
3488;DHT22;38546;48.170;11.724;2022-07-10T08:13:23;17.90;99.90
3488;DHT22;38546;48.170;11.724;2022-07-10T08:16:12;17.60;99.90
3488;DHT22;38546;48.170;11.724;2022-07-10T08:19:01;17.60;99.90
3488;DHT22;38546;48.170;11.724;2022-07-10T08:21:50;17.90;99.90
3488;DHT22;38546;48.170;11.724;2022-07-10T08:24:39;18.30;99.90
3488;DHT22;38546;48.170;11.724;2022-07-10T08:27:29;18.90;99.90
3488;DHT22;38546;48.170;11.724;2022-07-10T08:30:19;19.10;99.90
3488;DHT22;38546;48.170;11.724;2022-07-10T08:33:08;19.10;99.90
3488;DHT22;38546;48.170;11.724;2022-07-10T08:35:58;19.00;99.90
3488;DHT22;38546;48.170;11.724;2022-07-10T08:38:49;19.30;99.90
3488;DHT22;38546;48.170;11.724;2022-07-10T08:41:38;19.30;99.90
3488;DHT22;38546;48.170;11.724;2022-07-10T08:44:28;19.40;99.90
3488;DHT22;38546;48.170;11.724;2022-07-10T08:47:21;19.30;99.90
3488;DHT22;38546;48.170;11.724;2022-07-10T08:50:22;19.00;99.90
3488;DHT22;38546;48.170;11.724;2022-07-10T08:53:30;19.00;99.90
3488;DHT22;38546;48.170;11.724;2022-07-10T08:56:20;18.80;99.90
3488;DHT22;38546;48.170;11.724;2022-07-10T08:59:09;19.10;99.90
3488;DHT22;38546;48.170;11.724;2022-07-10T09:02:01;19.30;99.90
3488;DHT22;38546;48.170;11.724;2022-07-10T09:04:51;19.20;99.90
3488;DHT22;38546;48.170;11.724;2022-07-10T09:07:41;19.50;99.90
3488;DHT22;38546;48.170;11.724;2022-07-10T09:10:32;19.70;99.90
3488;DHT22;38546;48.170;11.724;2022-07-10T09:13:21;19.80;99.90
3488;DHT22;38546;48.170;11.724;2022-07-10T09:16:24;19.80;99.90
3488;DHT22;38546;48.170;11.724;2022-07-10T09:19:20;19.50;99.90
3488;DHT22;38546;48.170;11.724;2022-07-10T09:22:13;19.30;99.90
3488;DHT22;38546;48.170;11.724;2022-07-10T09:25:12;19.50;99.90
3488;DHT22;38546;48.170;11.724;2022-07-10T09:28:02;19.90;99.90
3488;DHT22;38546;48.170;11.724;2022-07-10T09:30:54;19.90;99.90
3488;DHT22;38546;48.170;11.724;2022-07-10T09:33:45;19.60;99.90
3488;DHT22;38546;48.170;11.724;2022-07-10T09:36:35;19.30;99.90
3488;DHT22;38546;48.170;11.724;2022-07-10T09:39:24;19.40;99.90
3488;DHT22;38546;48.170;11.724;2022-07-10T09:42:42;19.60;99.90
3488;DHT22;38546;48.170;11.724;2022-07-10T09:45:33;20.00;99.90
3488;DHT22;38546;48.170;11.724;2022-07-10T09:48:24;20.10;99.90
3488;DHT22;38546;48.170;11.724;2022-07-10T09:51:15;20.00;99.90
3488;DHT22;38546;48.170;11.724;2022-07-10T09:54:06;20.40;99.90
3488;DHT22;38546;48.170;11.724;2022-07-10T09:56:56;20.60;99.90
3488;DHT22;38546;48.170;11.724;2022-07-10T09:59:46;20.30;99.90
3488;DHT22;38546;48.170;11.724;2022-07-10T10:02:38;20.40;99.90
3488;DHT22;38546;48.170;11.724;2022-07-10T10:05:47;20.80;99.90
3488;DHT22;38546;48.170;11.724;2022-07-10T10:09:04;21.10;99.60
3488;DHT22;38546;48.170;11.724;2022-07-10T10:11:58;20.90;98.90
3488;DHT22;38546;48.170;11.724;2022-07-10T10:14:52;20.40;99.90
3488;DHT22;38546;48.170;11.724;2022-07-10T10:17:42;20.40;99.70
3488;DHT22;38546;48.170;11.724;2022-07-10T10:20:33;20.60;97.90
3488;DHT22;38546;48.170;11.724;2022-07-10T10:23:26;21.00;98.40
3488;DHT22;38546;48.170;11.724;2022-07-10T10:26:17;21.40;97.30
3488;DHT22;38546;48.170;11.724;2022-07-10T10:29:09;20.80;96.50
3488;DHT22;38546;48.170;11.724;2022-07-10T10:31:59;20.60;97.50
3488;DHT22;38546;48.170;11.724;2022-07-10T10:34:49;20.90;97.90
3488;DHT22;38546;48.170;11.724;2022-07-10T10:37:50;21.30;97.00
3488;DHT22;38546;48.170;11.724;2022-07-10T10:40:40;21.80;95.80
3488;DHT22;38546;48.170;11.724;2022-07-10T10:43:31;22.10;94.80
3488;DHT22;38546;48.170;11.724;2022-07-10T10:46:24;22.00;95.30
3488;DHT22;38546;48.170;11.724;2022-07-10T10:49:14;21.60;96.40
3488;DHT22;38546;48.170;11.724;2022-07-10T10:52:09;21.20;96.90
3488;DHT22;38546;48.170;11.724;2022-07-10T10:55:00;21.20;97.50
3488;DHT22;38546;48.170;11.724;2022-07-10T10:57:53;20.80;97.30
3488;DHT22;38546;48.170;11.724;2022-07-10T11:01:43;21.00;98.80
3488;DHT22;38546;48.170;11.724;2022-07-10T11:04:32;21.70;95.30
3488;DHT22;38546;48.170;11.724;2022-07-10T11:08:00;22.10;93.80
3488;DHT22;38546;48.170;11.724;2022-07-10T11:10:50;22.50;93.00
3488;DHT22;38546;48.170;11.724;2022-07-10T11:13:40;22.40;93.80
3488;DHT22;38546;48.170;11.724;2022-07-10T11:16:31;22.10;94.90
3488;DHT22;38546;48.170;11.724;2022-07-10T11:19:26;21.90;94.90
3488;DHT22;38546;48.170;11.724;2022-07-10T11:28:38;21.30;94.50
3488;DHT22;38546;48.170;11.724;2022-07-10T11:32:04;21.70;94.30
3488;DHT22;38546;48.170;11.724;2022-07-10T11:34:57;21.60;94.30
3488;DHT22;38546;48.170;11.724;2022-07-10T11:37:53;22.10;93.80
3488;DHT22;38546;48.170;11.724;2022-07-10T11:40:43;22.20;93.30
3488;DHT22;38546;48.170;11.724;2022-07-10T11:43:32;22.50;92.00
3488;DHT22;38546;48.170;11.724;2022-07-10T11:46:23;22.40;92.30
3488;DHT22;38546;48.170;11.724;2022-07-10T11:49:14;22.20;92.90
3488;DHT22;38546;48.170;11.724;2022-07-10T11:52:04;21.90;93.20
3488;DHT22;38546;48.170;11.724;2022-07-10T11:54:54;21.90;93.90
3488;DHT22;38546;48.170;11.724;2022-07-10T11:57:43;22.00;94.20
3488;DHT22;38546;48.170;11.724;2022-07-10T12:00:37;22.30;93.40
3488;DHT22;38546;48.170;11.724;2022-07-10T12:03:26;22.50;92.40
3488;DHT22;38546;48.170;11.724;2022-07-10T12:06:16;22.50;92.90
3488;DHT22;38546;48.170;11.724;2022-07-10T12:09:13;22.80;92.80
3488;DHT22;38546;48.170;11.724;2022-07-10T12:12:05;22.80;91.80
3488;DHT22;38546;48.170;11.724;2022-07-10T12:14:55;22.50;92.30
3488;DHT22;38546;48.170;11.724;2022-07-10T12:17:51;22.50;92.20
3488;DHT22;38546;48.170;11.724;2022-07-10T12:20:40;22.70;92.60
3488;DHT22;38546;48.170;11.724;2022-07-10T12:23:34;22.70;92.10
3488;DHT22;38546;48.170;11.724;2022-07-10T12:26:34;22.60;91.50
3488;DHT22;38546;48.170;11.724;2022-07-10T12:29:29;22.10;91.80
3488;DHT22;38546;48.170;11.724;2022-07-10T12:32:21;21.90;92.20
3488;DHT22;38546;48.170;11.724;2022-07-10T12:35:11;21.80;92.30
3488;DHT22;38546;48.170;11.724;2022-07-10T12:38:03;21.80;93.60
3488;DHT22;38546;48.170;11.724;2022-07-10T12:41:12;22.00;92.60
3488;DHT22;38546;48.170;11.724;2022-07-10T12:44:02;22.20;91.90
3488;DHT22;38546;48.170;11.724;2022-07-10T12:47:10;22.20;92.10
3488;DHT22;38546;48.170;11.724;2022-07-10T12:50:05;22.30;91.90
3488;DHT22;38546;48.170;11.724;2022-07-10T12:53:10;22.00;92.00
3488;DHT22;38546;48.170;11.724;2022-07-10T12:56:04;21.80;92.30
3488;DHT22;38546;48.170;11.724;2022-07-10T12:58:53;21.70;91.50
3488;DHT22;38546;48.170;11.724;2022-07-10T13:01:43;21.50;92.20
3488;DHT22;38546;48.170;11.724;2022-07-10T13:04:33;21.50;91.80
3488;DHT22;38546;48.170;11.724;2022-07-10T13:07:33;21.60;91.30
3488;DHT22;38546;48.170;11.724;2022-07-10T13:10:24;21.70;91.90
3488;DHT22;38546;48.170;11.724;2022-07-10T13:13:13;21.60;91.30
3488;DHT22;38546;48.170;11.724;2022-07-10T13:16:03;21.60;91.50
3488;DHT22;38546;48.170;11.724;2022-07-10T13:18:53;21.70;91.80
3488;DHT22;38546;48.170;11.724;2022-07-10T13:21:43;21.90;91.30
3488;DHT22;38546;48.170;11.724;2022-07-10T13:24:32;22.00;91.10
3488;DHT22;38546;48.170;11.724;2022-07-10T13:27:22;21.80;91.10
3488;DHT22;38546;48.170;11.724;2022-07-10T13:30:12;21.70;91.30
3488;DHT22;38546;48.170;11.724;2022-07-10T13:33:01;21.70;91.20
3488;DHT22;38546;48.170;11.724;2022-07-10T13:35:51;21.60;91.20
3488;DHT22;38546;48.170;11.724;2022-07-10T13:38:41;21.40;90.90
3488;DHT22;38546;48.170;11.724;2022-07-10T13:41:31;21.20;91.50
3488;DHT22;38546;48.170;11.724;2022-07-10T13:44:20;21.30;91.00
3488;DHT22;38546;48.170;11.724;2022-07-10T13:47:10;21.40;90.80
3488;DHT22;38546;48.170;11.724;2022-07-10T13:49:59;21.10;90.90
3488;DHT22;38546;48.170;11.724;2022-07-10T13:52:48;21.10;91.90
3488;DHT22;38546;48.170;11.724;2022-07-10T13:55:39;21.10;91.20
3488;DHT22;38546;48.170;11.724;2022-07-10T13:58:28;21.30;91.30
3488;DHT22;38546;48.170;11.724;2022-07-10T14:01:18;21.20;91.10
3488;DHT22;38546;48.170;11.724;2022-07-10T14:04:07;20.90;90.50
3488;DHT22;38546;48.170;11.724;2022-07-10T14:06:57;20.80;90.40
3488;DHT22;38546;48.170;11.724;2022-07-10T14:09:46;20.80;90.70
3488;DHT22;38546;48.170;11.724;2022-07-10T14:12:35;20.80;90.90
3488;DHT22;38546;48.170;11.724;2022-07-10T14:15:25;20.80;90.80
3488;DHT22;38546;48.170;11.724;2022-07-10T14:18:14;20.90;89.60
3488;DHT22;38546;48.170;11.724;2022-07-10T14:21:23;20.90;90.90
3488;DHT22;38546;48.170;11.724;2022-07-10T14:24:16;21.00;91.00
3488;DHT22;38546;48.170;11.724;2022-07-10T14:27:05;21.10;90.10
3488;DHT22;38546;48.170;11.724;2022-07-10T14:29:55;21.20;90.50
3488;DHT22;38546;48.170;11.724;2022-07-10T14:32:45;21.20;90.40
3488;DHT22;38546;48.170;11.724;2022-07-10T14:35:34;21.20;89.40
3488;DHT22;38546;48.170;11.724;2022-07-10T14:38:23;21.10;90.00
3488;DHT22;38546;48.170;11.724;2022-07-10T14:41:13;21.10;90.40
3488;DHT22;38546;48.170;11.724;2022-07-10T14:44:02;21.10;90.10
3488;DHT22;38546;48.170;11.724;2022-07-10T14:46:52;21.20;89.80
3488;DHT22;38546;48.170;11.724;2022-07-10T14:49:41;21.10;88.90
3488;DHT22;38546;48.170;11.724;2022-07-10T14:52:30;21.10;89.70
3488;DHT22;38546;48.170;11.724;2022-07-10T14:55:21;21.20;89.30
3488;DHT22;38546;48.170;11.724;2022-07-10T14:58:11;21.00;90.30
3488;DHT22;38546;48.170;11.724;2022-07-10T15:01:00;21.00;90.20
3488;DHT22;38546;48.170;11.724;2022-07-10T15:03:51;21.20;89.80
3488;DHT22;38546;48.170;11.724;2022-07-10T15:06:42;21.30;89.50
3488;DHT22;38546;48.170;11.724;2022-07-10T15:09:31;21.30;88.90
3488;DHT22;38546;48.170;11.724;2022-07-10T15:12:21;21.20;89.10
3488;DHT22;38546;48.170;11.724;2022-07-10T15:15:10;21.10;89.00
3488;DHT22;38546;48.170;11.724;2022-07-10T15:18:00;21.10;89.30
3488;DHT22;38546;48.170;11.724;2022-07-10T15:20:49;21.20;88.60
3488;DHT22;38546;48.170;11.724;2022-07-10T15:23:38;21.40;87.30
3488;DHT22;38546;48.170;11.724;2022-07-10T15:26:27;21.30;87.20
3488;DHT22;38546;48.170;11.724;2022-07-10T15:29:17;21.30;87.50
3488;DHT22;38546;48.170;11.724;2022-07-10T15:32:07;21.20;87.20
3488;DHT22;38546;48.170;11.724;2022-07-10T15:34:56;21.10;86.70
3488;DHT22;38546;48.170;11.724;2022-07-10T15:37:46;21.10;88.20
3488;DHT22;38546;48.170;11.724;2022-07-10T15:40:35;21.20;88.00
3488;DHT22;38546;48.170;11.724;2022-07-10T15:43:24;21.10;86.60
3488;DHT22;38546;48.170;11.724;2022-07-10T15:46:16;21.10;87.40
3488;DHT22;38546;48.170;11.724;2022-07-10T15:49:06;21.10;86.50
3488;DHT22;38546;48.170;11.724;2022-07-10T15:51:57;21.10;84.60
3488;DHT22;38546;48.170;11.724;2022-07-10T15:54:50;21.00;84.10
3488;DHT22;38546;48.170;11.724;2022-07-10T15:57:40;21.00;85.40
3488;DHT22;38546;48.170;11.724;2022-07-10T16:00:29;20.90;86.90
3488;DHT22;38546;48.170;11.724;2022-07-10T16:03:18;20.90;86.10
3488;DHT22;38546;48.170;11.724;2022-07-10T16:06:07;20.90;86.60
3488;DHT22;38546;48.170;11.724;2022-07-10T16:08:59;20.80;87.00
3488;DHT22;38546;48.170;11.724;2022-07-10T16:11:48;21.00;86.40
3488;DHT22;38546;48.170;11.724;2022-07-10T16:14:38;20.80;87.80
3488;DHT22;38546;48.170;11.724;2022-07-10T16:17:27;20.90;86.20
3488;DHT22;38546;48.170;11.724;2022-07-10T16:20:16;20.90;86.40
3488;DHT22;38546;48.170;11.724;2022-07-10T16:23:06;21.00;87.10
3488;DHT22;38546;48.170;11.724;2022-07-10T16:25:55;21.10;87.20
3488;DHT22;38546;48.170;11.724;2022-07-10T16:28:49;21.00;86.20
3488;DHT22;38546;48.170;11.724;2022-07-10T16:31:40;20.90;86.80
3488;DHT22;38546;48.170;11.724;2022-07-10T16:34:29;20.90;86.10
3488;DHT22;38546;48.170;11.724;2022-07-10T16:37:18;20.80;85.50
3488;DHT22;38546;48.170;11.724;2022-07-10T16:40:09;20.80;86.10
3488;DHT22;38546;48.170;11.724;2022-07-10T16:42:58;20.70;86.40
3488;DHT22;38546;48.170;11.724;2022-07-10T16:45:48;20.60;87.00
3488;DHT22;38546;48.170;11.724;2022-07-10T16:48:37;20.60;87.60
3488;DHT22;38546;48.170;11.724;2022-07-10T16:51:26;20.70;86.60
3488;DHT22;38546;48.170;11.724;2022-07-10T16:54:15;20.60;86.20
3488;DHT22;38546;48.170;11.724;2022-07-10T16:57:04;20.50;87.20
3488;DHT22;38546;48.170;11.724;2022-07-10T16:59:56;20.40;86.40
3488;DHT22;38546;48.170;11.724;2022-07-10T17:02:44;20.50;87.40
3488;DHT22;38546;48.170;11.724;2022-07-10T17:05:34;20.40;86.70
3488;DHT22;38546;48.170;11.724;2022-07-10T17:08:23;20.40;86.80
3488;DHT22;38546;48.170;11.724;2022-07-10T17:11:11;20.30;86.80
3488;DHT22;38546;48.170;11.724;2022-07-10T17:14:00;20.10;88.40
3488;DHT22;38546;48.170;11.724;2022-07-10T17:16:50;20.10;87.50
3488;DHT22;38546;48.170;11.724;2022-07-10T17:19:39;20.10;87.30
3488;DHT22;38546;48.170;11.724;2022-07-10T17:22:29;20.10;87.00
3488;DHT22;38546;48.170;11.724;2022-07-10T17:25:18;20.10;86.80
3488;DHT22;38546;48.170;11.724;2022-07-10T17:28:08;20.00;88.00
3488;DHT22;38546;48.170;11.724;2022-07-10T17:30:58;19.90;87.80
3488;DHT22;38546;48.170;11.724;2022-07-10T17:33:47;19.90;87.30
3488;DHT22;38546;48.170;11.724;2022-07-10T17:36:35;19.80;88.60
3488;DHT22;38546;48.170;11.724;2022-07-10T17:39:25;19.70;88.10
3488;DHT22;38546;48.170;11.724;2022-07-10T17:42:14;19.50;88.10
3488;DHT22;38546;48.170;11.724;2022-07-10T17:45:03;19.40;89.20
3488;DHT22;38546;48.170;11.724;2022-07-10T17:47:53;19.50;88.80
3488;DHT22;38546;48.170;11.724;2022-07-10T17:50:42;19.40;88.60
3488;DHT22;38546;48.170;11.724;2022-07-10T17:53:31;19.40;89.00
3488;DHT22;38546;48.170;11.724;2022-07-10T17:56:20;19.30;88.90
3488;DHT22;38546;48.170;11.724;2022-07-10T17:59:10;19.30;89.20
3488;DHT22;38546;48.170;11.724;2022-07-10T18:01:59;19.30;89.50
3488;DHT22;38546;48.170;11.724;2022-07-10T18:04:48;19.10;90.30
3488;DHT22;38546;48.170;11.724;2022-07-10T18:07:37;19.20;90.20